Flight Track Log - Related Links

Times and Time Zones

All times are in EST time to prevent confusion due to time zone crossing. See the SVA1472 flight status page for this flight to view local times or setup timezone preferences in your user account.

Time Position Orientation Groundspeed Altitude Reporting Facility
EST Latitude Longitude Course Direction KTS MPH feet Rate Location/Type
Thu 04:11:00 AM 24.6590 40.1728 76° East  Level Estimated
Thu 04:12:00 AM 24.6851 40.2898 76° East  Level Estimated
Thu 04:13:00 AM 24.7112 40.4069 76° East  Level Estimated
Thu 04:14:00 AM 24.7372 40.5241 76° East  Level Estimated
Thu 04:15:00 AM 24.7631 40.6413 76° East  Level Estimated
Thu 04:16:00 AM 24.7889 40.7585 76° East  Level Estimated
Thu 04:17:00 AM 24.8146 40.8758 76° East  Level Estimated
Thu 04:18:00 AM 24.8402 40.9932 76° East  Level Estimated
Thu 04:19:00 AM 24.8657 41.1106 77° East  Level Estimated
Thu 04:20:00 AM 24.8912 41.2280 77° East  Level Estimated
Thu 04:21:00 AM 24.9165 41.3455 77° East  Level Estimated
Thu 04:22:00 AM 24.9417 41.4631 77° East  Level Estimated
Thu 04:23:00 AM 24.9669 41.5806 77° East  Level Estimated
Thu 04:24:00 AM 24.9920 41.6983 77° East  Level Estimated
Thu 04:25:00 AM 25.0169 41.8160 77° East  Level Estimated
Thu 04:26:00 AM 25.0418 41.9337 77° East  Level Estimated
Thu 04:27:00 AM 25.0666 42.0515 77° East  Level Estimated
Thu 04:28:00 AM 25.0913 42.1693 77° East  Level Estimated
Thu 04:29:00 AM 25.1159 42.2872 77° East  Level Estimated
Thu 04:30:00 AM 25.1404 42.4051 77° East  Level Estimated
Thu 04:31:00 AM 25.1648 42.5231 77° East  Level Estimated
Thu 04:32:00 AM 25.1891 42.6411 77° East  Level Estimated
Thu 04:33:00 AM 25.2134 42.7592 77° East  Level Estimated
Thu 04:34:00 AM 25.2375 42.8773 77° East  Level Estimated
Thu 04:35:00 AM 25.2615 42.9954 77° East  Level Estimated
Thu 04:36:00 AM 25.2855 43.1136 77° East  Level Estimated
Thu 04:37:00 AM 25.3093 43.2319 77° East  Level Estimated
Thu 04:38:00 AM 25.3331 43.3502 77° East  Level Estimated
Thu 04:39:00 AM 25.3567 43.4685 78° East  Level Estimated
Thu 04:40:00 AM 25.3803 43.5869 78° East  Level Estimated
Thu 04:41:00 AM 25.4038 43.7053 78° East  Level Estimated
Thu 04:42:00 AM 25.4271 43.8238 78° East  Level Estimated
Thu 04:43:00 AM 25.4504 43.9423 78° East  Level Estimated
Thu 04:44:00 AM 25.4736 44.0609 78° East  Level Estimated
Thu 04:45:00 AM 25.4967 44.1795 78° East  Level Estimated
Thu 04:46:00 AM 25.5197 44.2982 78° East  Level Estimated
Thu 04:47:00 AM 25.5426 44.4169 78° East  Level Estimated
Thu 04:48:00 AM 25.5654 44.5357 78° East  Level Estimated
Thu 04:49:00 AM 25.5881 44.6545 78° East  Level Estimated
Thu 04:50:00 AM 25.6107 44.7733 78° East  Level Estimated
Thu 04:51:00 AM 25.6332 44.8922 78° East  Level Estimated
Thu 04:52:00 AM 25.6556 45.0111 78° East  Level Estimated
Thu 04:53:00 AM 25.6780 45.1301 78° East  Level Estimated
Thu 04:54:00 AM 25.7002 45.2491 78° East  Level Estimated
Thu 04:55:00 AM 25.7223 45.3682 78° East  Level Estimated
Thu 04:56:00 AM 25.7444 45.4873 78° East  Level Estimated
Thu 04:57:00 AM 25.7663 45.6065 78° East  Level Estimated
Thu 04:58:00 AM 25.7881 45.7257 78° East  Level Estimated
Thu 04:59:00 AM 25.8099 45.8449 79° East  Level Estimated
Thu 05:00:00 AM 25.8315 45.9642 79° East  Level Estimated
Thu 05:01:00 AM 25.8531 46.0835 79° East  Level Estimated
Thu 05:02:00 AM 25.8745 46.2029 79° East  Level Estimated
Thu 05:03:00 AM 25.8959 46.3223 79° East  Level Estimated
Thu 05:04:00 AM 25.9171 46.4418 79° East  Level Estimated
Thu 05:05:00 AM 25.9383 46.5613 79° East  Level Estimated
Thu 05:06:00 AM 25.9594 46.6808 79° East  Level Estimated
Thu 05:07:00 AM 25.9803 46.8004 79° East  Level Estimated
Thu 05:08:00 AM 26.0012 46.9201 79° East  Level Estimated
Thu 05:09:00 AM 26.0219 47.0397 79° East  Level Estimated
Thu 05:10:00 AM 26.0426 47.1595 79° East  Level Estimated
Thu 05:11:00 AM 26.0632 47.2792 79° East  Level Estimated
Thu 05:12:00 AM 26.0836 47.3990 79° East  Level Estimated
Thu 05:13:00 AM 26.1040 47.5189 79° East  Level Estimated
Thu 05:14:00 AM 26.1243 47.6387 79° East  Level Estimated
Thu 05:15:00 AM 26.1444 47.7587 79° East  Level Estimated
Thu 05:16:00 AM 26.1645 47.8786 79° East  Level Estimated
Thu 05:17:00 AM 26.1845 47.9986 79° East  Level Estimated
Thu 05:18:00 AM 26.2043 48.1187 80° East  Level Estimated
Thu 05:19:00 AM 26.2241 48.2388 80° East  Level Estimated
Thu 05:20:00 AM 26.2438 48.3589 80° East  Level Estimated
Thu 05:21:00 AM 26.2634 48.4791 80° East  Level Estimated
Thu 05:22:00 AM 26.2828 48.5993 80° East  Level Estimated
Thu 05:23:00 AM 26.3022 48.7196 80° East  Level Estimated
Thu 05:24:00 AM 26.3215 48.8398 80° East  Level Estimated
Thu 05:25:00 AM 26.3407 48.9602 80° East  Level Estimated
Thu 05:26:00 AM 26.3597 49.0806 80° East  Level Estimated
Thu 05:27:00 AM 26.3787 49.2010 80° East  Level Estimated
Thu 05:28:00 AM 26.3976 49.3214 80° East  Level Estimated
Thu 05:29:00 AM 26.4163 49.4419 80° East  Level Estimated
Thu 05:30:00 AM 26.4350 49.5624 80° East  Level Estimated
Thu 05:31:00 AM 26.4536 49.6830 80° East  Level Estimated
Thu 05:32:00 AM 26.4712 49.7979 80° East  Level Estimated
Thu 05:33:00 AM 26.4712 49.7979 North  Level Estimated

Login

Don't have an account? Register now (free) for customized features, flight alerts, and more!